sensor_id;sensor_type;location;lat;lon;timestamp;P1;durP1;ratioP1;P2;durP2;ratioP2
34767;SDS011;21755;43.608;1.236;2022-09-17T00:00:36;6.45;;;2.50;;
34767;SDS011;21755;43.608;1.236;2022-09-17T00:03:03;3.67;;;1.95;;
34767;SDS011;21755;43.608;1.236;2022-09-17T00:05:29;2.70;;;1.83;;
34767;SDS011;21755;43.608;1.236;2022-09-17T00:07:55;7.72;;;2.05;;
34767;SDS011;21755;43.608;1.236;2022-09-17T00:10:21;6.85;;;1.90;;
34767;SDS011;21755;43.608;1.236;2022-09-17T00:12:48;6.03;;;2.05;;
34767;SDS011;21755;43.608;1.236;2022-09-17T00:15:15;3.80;;;1.80;;
34767;SDS011;21755;43.608;1.236;2022-09-17T00:17:41;5.57;;;2.47;;
34767;SDS011;21755;43.608;1.236;2022-09-17T00:20:07;7.10;;;1.80;;
34767;SDS011;21755;43.608;1.236;2022-09-17T00:22:37;7.97;;;2.13;;
34767;SDS011;21755;43.608;1.236;2022-09-17T00:25:04;4.60;;;1.55;;
34767;SDS011;21755;43.608;1.236;2022-09-17T00:27:32;7.20;;;1.85;;
34767;SDS011;21755;43.608;1.236;2022-09-17T00:29:58;4.25;;;1.90;;
34767;SDS011;21755;43.608;1.236;2022-09-17T00:32:24;6.65;;;1.85;;
34767;SDS011;21755;43.608;1.236;2022-09-17T00:34:51;19.60;;;1.83;;
34767;SDS011;21755;43.608;1.236;2022-09-17T00:37:17;9.88;;;2.00;;
34767;SDS011;21755;43.608;1.236;2022-09-17T00:39:44;3.03;;;1.70;;
34767;SDS011;21755;43.608;1.236;2022-09-17T00:42:12;2.95;;;1.65;;
34767;SDS011;21755;43.608;1.236;2022-09-17T00:47:18;3.25;;;1.60;;
34767;SDS011;21755;43.608;1.236;2022-09-17T00:50:02;7.78;;;1.95;;
34767;SDS011;21755;43.608;1.236;2022-09-17T00:52:37;5.95;;;2.00;;
34767;SDS011;21755;43.608;1.236;2022-09-17T00:57:43;3.30;;;1.80;;
34767;SDS011;21755;43.608;1.236;2022-09-17T01:00:10;3.80;;;1.92;;
34767;SDS011;21755;43.608;1.236;2022-09-17T01:02:38;5.30;;;2.08;;
34767;SDS011;21755;43.608;1.236;2022-09-17T01:05:05;7.63;;;2.00;;
34767;SDS011;21755;43.608;1.236;2022-09-17T01:10:36;10.65;;;1.92;;
34767;SDS011;21755;43.608;1.236;2022-09-17T01:22:06;5.72;;;1.98;;
34767;SDS011;21755;43.608;1.236;2022-09-17T01:38:39;9.40;;;2.45;;
34767;SDS011;21755;43.608;1.236;2022-09-17T01:41:29;4.90;;;2.00;;
34767;SDS011;21755;43.608;1.236;2022-09-17T01:44:04;5.60;;;1.90;;
34767;SDS011;21755;43.608;1.236;2022-09-17T01:46:35;4.38;;;2.20;;
34767;SDS011;21755;43.608;1.236;2022-09-17T01:49:07;4.38;;;2.25;;
34767;SDS011;21755;43.608;1.236;2022-09-17T01:51:40;5.88;;;2.60;;
34767;SDS011;21755;43.608;1.236;2022-09-17T01:56:53;4.97;;;2.15;;
34767;SDS011;21755;43.608;1.236;2022-09-17T01:59:41;8.45;;;2.65;;
34767;SDS011;21755;43.608;1.236;2022-09-17T02:05:15;6.70;;;2.40;;
34767;SDS011;21755;43.608;1.236;2022-09-17T02:10:45;10.90;;;2.03;;
34767;SDS011;21755;43.608;1.236;2022-09-17T02:13:18;4.18;;;1.83;;
34767;SDS011;21755;43.608;1.236;2022-09-17T02:15:56;7.03;;;2.45;;
34767;SDS011;21755;43.608;1.236;2022-09-17T02:18:31;6.43;;;2.30;;
34767;SDS011;21755;43.608;1.236;2022-09-17T02:21:17;7.35;;;2.35;;
34767;SDS011;21755;43.608;1.236;2022-09-17T02:26:44;7.03;;;2.28;;
34767;SDS011;21755;43.608;1.236;2022-09-17T02:32:10;9.80;;;2.58;;
34767;SDS011;21755;43.608;1.236;2022-09-17T02:34:37;7.40;;;2.28;;
34767;SDS011;21755;43.608;1.236;2022-09-17T02:37:03;5.45;;;2.15;;
34767;SDS011;21755;43.608;1.236;2022-09-17T02:39:30;8.15;;;2.30;;
34767;SDS011;21755;43.608;1.236;2022-09-17T02:42:11;4.13;;;2.35;;
34767;SDS011;21755;43.608;1.236;2022-09-17T02:47:33;5.18;;;2.08;;
34767;SDS011;21755;43.608;1.236;2022-09-17T02:55:44;2.90;;;1.90;;
34767;SDS011;21755;43.608;1.236;2022-09-17T02:58:37;3.70;;;1.77;;
34767;SDS011;21755;43.608;1.236;2022-09-17T03:02:15;5.18;;;1.75;;
34767;SDS011;21755;43.608;1.236;2022-09-17T03:04:22;6.00;;;2.00;;
34767;SDS011;21755;43.608;1.236;2022-09-17T03:06:51;7.15;;;2.22;;
34767;SDS011;21755;43.608;1.236;2022-09-17T03:09:18;8.73;;;2.22;;
34767;SDS011;21755;43.608;1.236;2022-09-17T03:11:44;4.30;;;1.85;;
34767;SDS011;21755;43.608;1.236;2022-09-17T03:14:10;5.15;;;1.83;;
34767;SDS011;21755;43.608;1.236;2022-09-17T03:16:36;5.22;;;1.90;;
34767;SDS011;21755;43.608;1.236;2022-09-17T03:19:02;4.40;;;1.80;;
34767;SDS011;21755;43.608;1.236;2022-09-17T03:21:28;8.50;;;2.30;;
34767;SDS011;21755;43.608;1.236;2022-09-17T03:23:55;4.97;;;2.15;;
34767;SDS011;21755;43.608;1.236;2022-09-17T03:26:24;5.97;;;2.40;;
34767;SDS011;21755;43.608;1.236;2022-09-17T03:28:51;7.65;;;2.33;;
34767;SDS011;21755;43.608;1.236;2022-09-17T03:31:17;7.45;;;1.95;;
34767;SDS011;21755;43.608;1.236;2022-09-17T03:33:43;4.05;;;2.03;;
34767;SDS011;21755;43.608;1.236;2022-09-17T03:36:08;3.92;;;1.85;;
34767;SDS011;21755;43.608;1.236;2022-09-17T03:38:34;5.03;;;1.80;;
34767;SDS011;21755;43.608;1.236;2022-09-17T03:41:03;6.30;;;1.88;;
34767;SDS011;21755;43.608;1.236;2022-09-17T03:43:33;11.25;;;2.08;;
34767;SDS011;21755;43.608;1.236;2022-09-17T03:45:59;7.93;;;2.25;;
34767;SDS011;21755;43.608;1.236;2022-09-17T03:48:25;4.10;;;2.15;;
34767;SDS011;21755;43.608;1.236;2022-09-17T03:50:51;7.85;;;2.40;;
34767;SDS011;21755;43.608;1.236;2022-09-17T03:53:17;4.22;;;2.30;;
34767;SDS011;21755;43.608;1.236;2022-09-17T03:55:43;5.32;;;2.13;;
34767;SDS011;21755;43.608;1.236;2022-09-17T03:58:09;6.45;;;2.30;;
34767;SDS011;21755;43.608;1.236;2022-09-17T04:00:35;7.32;;;2.10;;
34767;SDS011;21755;43.608;1.236;2022-09-17T04:03:05;3.53;;;1.88;;
34767;SDS011;21755;43.608;1.236;2022-09-17T04:05:31;3.53;;;1.63;;
34767;SDS011;21755;43.608;1.236;2022-09-17T04:07:57;5.78;;;1.83;;
34767;SDS011;21755;43.608;1.236;2022-09-17T04:10:23;6.68;;;1.92;;
34767;SDS011;21755;43.608;1.236;2022-09-17T04:12:49;6.00;;;2.00;;
34767;SDS011;21755;43.608;1.236;2022-09-17T04:15:15;6.13;;;1.95;;
34767;SDS011;21755;43.608;1.236;2022-09-17T04:17:41;5.82;;;2.05;;
34767;SDS011;21755;43.608;1.236;2022-09-17T04:20:07;6.75;;;1.95;;
34767;SDS011;21755;43.608;1.236;2022-09-17T04:22:33;9.65;;;2.38;;
34767;SDS011;21755;43.608;1.236;2022-09-17T04:24:59;3.63;;;1.63;;
34767;SDS011;21755;43.608;1.236;2022-09-17T04:27:25;6.70;;;1.92;;
34767;SDS011;21755;43.608;1.236;2022-09-17T04:29:51;5.50;;;1.92;;
34767;SDS011;21755;43.608;1.236;2022-09-17T04:32:17;5.85;;;1.65;;
34767;SDS011;21755;43.608;1.236;2022-09-17T04:34:42;8.18;;;2.50;;
34767;SDS011;21755;43.608;1.236;2022-09-17T04:37:08;9.65;;;1.98;;
34767;SDS011;21755;43.608;1.236;2022-09-17T04:39:34;9.60;;;2.45;;
34767;SDS011;21755;43.608;1.236;2022-09-17T04:42:02;7.53;;;2.20;;
34767;SDS011;21755;43.608;1.236;2022-09-17T04:44:28;5.40;;;2.05;;
34767;SDS011;21755;43.608;1.236;2022-09-17T04:46:53;9.05;;;2.38;;
34767;SDS011;21755;43.608;1.236;2022-09-17T04:49:20;10.95;;;2.38;;
34767;SDS011;21755;43.608;1.236;2022-09-17T04:51:46;6.03;;;1.80;;
34767;SDS011;21755;43.608;1.236;2022-09-17T04:54:12;5.80;;;2.03;;
34767;SDS011;21755;43.608;1.236;2022-09-17T04:56:38;4.88;;;2.17;;
34767;SDS011;21755;43.608;1.236;2022-09-17T04:59:04;5.43;;;2.05;;
34767;SDS011;21755;43.608;1.236;2022-09-17T05:01:30;7.00;;;2.28;;
34767;SDS011;21755;43.608;1.236;2022-09-17T05:03:56;7.20;;;1.95;;
34767;SDS011;21755;43.608;1.236;2022-09-17T05:06:22;4.07;;;2.55;;
34767;SDS011;21755;43.608;1.236;2022-09-17T05:08:48;8.27;;;2.35;;
34767;SDS011;21755;43.608;1.236;2022-09-17T05:11:14;11.13;;;2.35;;
34767;SDS011;21755;43.608;1.236;2022-09-17T05:13:40;3.80;;;2.08;;
34767;SDS011;21755;43.608;1.236;2022-09-17T05:16:06;6.88;;;2.22;;
34767;SDS011;21755;43.608;1.236;2022-09-17T05:18:32;3.70;;;2.30;;
34767;SDS011;21755;43.608;1.236;2022-09-17T05:20:58;4.47;;;1.90;;
34767;SDS011;21755;43.608;1.236;2022-09-17T05:23:23;5.43;;;2.10;;
34767;SDS011;21755;43.608;1.236;2022-09-17T05:25:49;4.28;;;1.88;;
34767;SDS011;21755;43.608;1.236;2022-09-17T05:28:16;7.45;;;1.88;;
34767;SDS011;21755;43.608;1.236;2022-09-17T05:30:42;7.70;;;2.25;;
34767;SDS011;21755;43.608;1.236;2022-09-17T05:33:08;7.20;;;1.58;;
34767;SDS011;21755;43.608;1.236;2022-09-17T05:35:34;7.40;;;2.40;;
34767;SDS011;21755;43.608;1.236;2022-09-17T05:38:01;5.55;;;2.00;;
34767;SDS011;21755;43.608;1.236;2022-09-17T05:40:29;8.38;;;2.05;;
34767;SDS011;21755;43.608;1.236;2022-09-17T05:43:00;5.22;;;1.90;;
34767;SDS011;21755;43.608;1.236;2022-09-17T05:45:28;5.57;;;1.67;;
34767;SDS011;21755;43.608;1.236;2022-09-17T05:47:57;4.60;;;2.00;;
34767;SDS011;21755;43.608;1.236;2022-09-17T05:50:24;7.35;;;1.70;;
34767;SDS011;21755;43.608;1.236;2022-09-17T05:52:51;7.40;;;2.28;;
34767;SDS011;21755;43.608;1.236;2022-09-17T05:55:18;5.47;;;2.05;;
34767;SDS011;21755;43.608;1.236;2022-09-17T05:57:46;6.68;;;1.77;;
34767;SDS011;21755;43.608;1.236;2022-09-17T06:00:13;4.72;;;1.90;;
34767;SDS011;21755;43.608;1.236;2022-09-17T06:02:39;4.13;;;1.88;;
34767;SDS011;21755;43.608;1.236;2022-09-17T06:05:05;7.78;;;1.83;;
34767;SDS011;21755;43.608;1.236;2022-09-17T06:07:33;5.18;;;2.03;;
34767;SDS011;21755;43.608;1.236;2022-09-17T06:10:01;2.97;;;1.60;;
34767;SDS011;21755;43.608;1.236;2022-09-17T06:12:28;3.38;;;1.90;;
34767;SDS011;21755;43.608;1.236;2022-09-17T06:14:54;5.50;;;1.98;;
34767;SDS011;21755;43.608;1.236;2022-09-17T06:17:19;9.40;;;2.15;;
34767;SDS011;21755;43.608;1.236;2022-09-17T06:19:45;6.65;;;2.10;;
34767;SDS011;21755;43.608;1.236;2022-09-17T06:22:11;7.43;;;1.90;;
34767;SDS011;21755;43.608;1.236;2022-09-17T06:24:37;7.53;;;2.42;;
34767;SDS011;21755;43.608;1.236;2022-09-17T06:27:03;3.35;;;1.67;;
34767;SDS011;21755;43.608;1.236;2022-09-17T06:29:29;5.88;;;1.85;;
34767;SDS011;21755;43.608;1.236;2022-09-17T06:31:55;5.70;;;1.67;;
34767;SDS011;21755;43.608;1.236;2022-09-17T06:34:21;5.65;;;1.80;;
34767;SDS011;21755;43.608;1.236;2022-09-17T06:36:49;6.93;;;2.00;;
34767;SDS011;21755;43.608;1.236;2022-09-17T06:39:15;3.55;;;1.70;;
34767;SDS011;21755;43.608;1.236;2022-09-17T06:41:41;4.35;;;1.85;;
34767;SDS011;21755;43.608;1.236;2022-09-17T06:44:07;4.30;;;1.63;;
34767;SDS011;21755;43.608;1.236;2022-09-17T06:46:33;5.63;;;1.70;;
34767;SDS011;21755;43.608;1.236;2022-09-17T06:48:59;6.63;;;2.13;;
34767;SDS011;21755;43.608;1.236;2022-09-17T06:51:25;7.03;;;2.00;;
34767;SDS011;21755;43.608;1.236;2022-09-17T06:53:54;6.00;;;2.25;;
34767;SDS011;21755;43.608;1.236;2022-09-17T06:56:19;7.13;;;2.13;;
34767;SDS011;21755;43.608;1.236;2022-09-17T06:58:45;4.82;;;2.10;;
34767;SDS011;21755;43.608;1.236;2022-09-17T07:01:12;5.15;;;1.92;;
34767;SDS011;21755;43.608;1.236;2022-09-17T07:03:40;6.63;;;1.75;;
34767;SDS011;21755;43.608;1.236;2022-09-17T07:06:09;5.97;;;2.17;;
34767;SDS011;21755;43.608;1.236;2022-09-17T07:08:36;4.82;;;1.60;;
34767;SDS011;21755;43.608;1.236;2022-09-17T07:11:03;6.97;;;2.15;;
34767;SDS011;21755;43.608;1.236;2022-09-17T07:13:29;5.13;;;1.83;;
34767;SDS011;21755;43.608;1.236;2022-09-17T07:15:57;9.00;;;1.95;;
34767;SDS011;21755;43.608;1.236;2022-09-17T07:18:24;3.85;;;1.55;;
34767;SDS011;21755;43.608;1.236;2022-09-17T07:20:54;3.65;;;1.98;;
34767;SDS011;21755;43.608;1.236;2022-09-17T07:23:22;6.38;;;1.60;;
34767;SDS011;21755;43.608;1.236;2022-09-17T07:25:52;6.53;;;1.92;;
34767;SDS011;21755;43.608;1.236;2022-09-17T07:28:19;5.85;;;2.05;;
34767;SDS011;21755;43.608;1.236;2022-09-17T07:30:46;6.25;;;1.92;;
34767;SDS011;21755;43.608;1.236;2022-09-17T07:33:13;10.88;;;2.53;;
34767;SDS011;21755;43.608;1.236;2022-09-17T07:35:40;7.05;;;2.28;;
34767;SDS011;21755;43.608;1.236;2022-09-17T07:38:06;5.25;;;1.70;;
34767;SDS011;21755;43.608;1.236;2022-09-17T07:40:32;2.75;;;2.15;;
34767;SDS011;21755;43.608;1.236;2022-09-17T07:42:58;4.57;;;1.90;;
34767;SDS011;21755;43.608;1.236;2022-09-17T07:45:24;9.27;;;2.10;;
34767;SDS011;21755;43.608;1.236;2022-09-17T07:47:50;5.55;;;2.10;;
34767;SDS011;21755;43.608;1.236;2022-09-17T07:50:16;7.70;;;1.90;;
34767;SDS011;21755;43.608;1.236;2022-09-17T07:52:45;7.72;;;1.80;;
34767;SDS011;21755;43.608;1.236;2022-09-17T07:55:12;5.00;;;1.88;;
34767;SDS011;21755;43.608;1.236;2022-09-17T07:57:38;5.32;;;1.92;;
34767;SDS011;21755;43.608;1.236;2022-09-17T08:00:04;4.88;;;1.83;;
34767;SDS011;21755;43.608;1.236;2022-09-17T08:02:31;6.72;;;1.92;;
34767;SDS011;21755;43.608;1.236;2022-09-17T08:04:57;7.97;;;2.00;;
34767;SDS011;21755;43.608;1.236;2022-09-17T08:07:23;3.78;;;1.60;;
34767;SDS011;21755;43.608;1.236;2022-09-17T08:09:49;8.05;;;1.63;;
34767;SDS011;21755;43.608;1.236;2022-09-17T08:12:15;9.48;;;1.70;;
34767;SDS011;21755;43.608;1.236;2022-09-17T08:14:43;5.60;;;1.75;;
34767;SDS011;21755;43.608;1.236;2022-09-17T08:17:09;6.63;;;1.98;;
34767;SDS011;21755;43.608;1.236;2022-09-17T08:19:35;7.18;;;2.63;;
34767;SDS011;21755;43.608;1.236;2022-09-17T08:22:01;10.75;;;1.70;;
34767;SDS011;21755;43.608;1.236;2022-09-17T08:24:27;4.30;;;1.73;;
34767;SDS011;21755;43.608;1.236;2022-09-17T08:26:53;8.70;;;1.90;;
34767;SDS011;21755;43.608;1.236;2022-09-17T08:29:19;4.53;;;1.67;;
34767;SDS011;21755;43.608;1.236;2022-09-17T08:31:44;5.90;;;2.03;;
34767;SDS011;21755;43.608;1.236;2022-09-17T08:34:10;7.13;;;1.83;;
34767;SDS011;21755;43.608;1.236;2022-09-17T08:36:37;3.70;;;1.45;;
34767;SDS011;21755;43.608;1.236;2022-09-17T08:39:03;4.15;;;1.60;;
34767;SDS011;21755;43.608;1.236;2022-09-17T08:47:01;4.82;;;1.63;;
34767;SDS011;21755;43.608;1.236;2022-09-17T08:49:41;7.65;;;1.55;;
34767;SDS011;21755;43.608;1.236;2022-09-17T08:52:34;4.45;;;1.67;;
34767;SDS011;21755;43.608;1.236;2022-09-17T09:10:04;6.95;;;1.30;;
34767;SDS011;21755;43.608;1.236;2022-09-17T09:12:37;3.60;;;1.50;;
34767;SDS011;21755;43.608;1.236;2022-09-17T09:15:05;2.67;;;1.20;;
34767;SDS011;21755;43.608;1.236;2022-09-17T09:17:43;3.78;;;1.20;;
34767;SDS011;21755;43.608;1.236;2022-09-17T09:20:39;2.40;;;1.30;;
34767;SDS011;21755;43.608;1.236;2022-09-17T09:23:20;1.98;;;1.25;;
34767;SDS011;21755;43.608;1.236;2022-09-17T09:26:13;5.82;;;1.20;;
34767;SDS011;21755;43.608;1.236;2022-09-17T09:31:49;1.15;;;1.02;;
34767;SDS011;21755;43.608;1.236;2022-09-17T09:34:35;3.75;;;1.10;;
34767;SDS011;21755;43.608;1.236;2022-09-17T09:43:00;3.45;;;1.10;;
34767;SDS011;21755;43.608;1.236;2022-09-17T09:45:46;7.25;;;1.40;;
34767;SDS011;21755;43.608;1.236;2022-09-17T09:51:35;4.57;;;1.30;;
34767;SDS011;21755;43.608;1.236;2022-09-17T09:54:32;8.98;;;1.67;;
34767;SDS011;21755;43.608;1.236;2022-09-17T09:57:39;4.47;;;1.70;;
34767;SDS011;21755;43.608;1.236;2022-09-17T10:03:03;2.78;;;1.20;;
34767;SDS011;21755;43.608;1.236;2022-09-17T10:05:38;5.40;;;1.52;;
34767;SDS011;21755;43.608;1.236;2022-09-17T10:08:13;2.38;;;0.90;;
34767;SDS011;21755;43.608;1.236;2022-09-17T10:13:23;4.10;;;1.30;;
34767;SDS011;21755;43.608;1.236;2022-09-17T10:15:49;3.25;;;1.08;;
34767;SDS011;21755;43.608;1.236;2022-09-17T10:18:20;3.33;;;1.20;;
34767;SDS011;21755;43.608;1.236;2022-09-17T10:20:48;4.20;;;1.30;;
34767;SDS011;21755;43.608;1.236;2022-09-17T10:23:14;5.45;;;1.30;;
34767;SDS011;21755;43.608;1.236;2022-09-17T10:25:42;2.30;;;1.10;;
34767;SDS011;21755;43.608;1.236;2022-09-17T10:28:51;2.83;;;1.02;;
34767;SDS011;21755;43.608;1.236;2022-09-17T10:30:58;1.13;;;1.00;;
34767;SDS011;21755;43.608;1.236;2022-09-17T10:33:29;5.80;;;1.45;;
34767;SDS011;21755;43.608;1.236;2022-09-17T10:36:06;2.05;;;1.23;;
34767;SDS011;21755;43.608;1.236;2022-09-17T10:38:37;2.58;;;1.10;;
34767;SDS011;21755;43.608;1.236;2022-09-17T10:41:08;2.78;;;0.88;;
34767;SDS011;21755;43.608;1.236;2022-09-17T10:46:03;4.90;;;1.23;;
34767;SDS011;21755;43.608;1.236;2022-09-17T10:48:33;3.63;;;1.27;;
34767;SDS011;21755;43.608;1.236;2022-09-17T10:51:04;1.98;;;1.10;;
34767;SDS011;21755;43.608;1.236;2022-09-17T10:53:32;8.38;;;1.42;;
34767;SDS011;21755;43.608;1.236;2022-09-17T10:56:36;5.85;;;1.48;;
34767;SDS011;21755;43.608;1.236;2022-09-17T11:02:01;2.65;;;1.10;;
34767;SDS011;21755;43.608;1.236;2022-09-17T11:10:13;4.72;;;1.30;;
34767;SDS011;21755;43.608;1.236;2022-09-17T11:13:03;4.00;;;1.25;;
34767;SDS011;21755;43.608;1.236;2022-09-17T11:18:31;5.40;;;1.13;;
34767;SDS011;21755;43.608;1.236;2022-09-17T11:24:15;2.10;;;1.00;;
34767;SDS011;21755;43.608;1.236;2022-09-17T11:27:14;3.83;;;0.93;;
34767;SDS011;21755;43.608;1.236;2022-09-17T11:35:10;3.42;;;1.38;;
34767;SDS011;21755;43.608;1.236;2022-09-17T11:40:23;2.40;;;1.05;;
34767;SDS011;21755;43.608;1.236;2022-09-17T11:45:45;3.28;;;1.08;;
34767;SDS011;21755;43.608;1.236;2022-09-17T11:48:21;3.53;;;1.08;;
34767;SDS011;21755;43.608;1.236;2022-09-17T11:53:55;7.05;;;1.23;;
34767;SDS011;21755;43.608;1.236;2022-09-17T11:56:43;0.98;;;0.88;;
34767;SDS011;21755;43.608;1.236;2022-09-17T11:59:24;3.67;;;1.33;;
34767;SDS011;21755;43.608;1.236;2022-09-17T12:04:44;2.58;;;0.95;;
34767;SDS011;21755;43.608;1.236;2022-09-17T12:13:15;5.30;;;1.00;;
34767;SDS011;21755;43.608;1.236;2022-09-17T12:16:21;4.72;;;0.80;;
34767;SDS011;21755;43.608;1.236;2022-09-17T12:24:35;2.83;;;0.90;;
34767;SDS011;21755;43.608;1.236;2022-09-17T12:27:11;2.58;;;0.82;;
34767;SDS011;21755;43.608;1.236;2022-09-17T12:35:26;2.60;;;0.90;;
34767;SDS011;21755;43.608;1.236;2022-09-17T12:38:14;5.43;;;1.00;;
34767;SDS011;21755;43.608;1.236;2022-09-17T12:54:43;0.90;;;0.65;;
34767;SDS011;21755;43.608;1.236;2022-09-17T12:57:40;1.40;;;0.80;;
34767;SDS011;21755;43.608;1.236;2022-09-17T13:00:10;4.65;;;0.82;;
34767;SDS011;21755;43.608;1.236;2022-09-17T13:11:24;3.33;;;0.80;;
34767;SDS011;21755;43.608;1.236;2022-09-17T13:16:47;1.02;;;0.50;;
34767;SDS011;21755;43.608;1.236;2022-09-17T13:19:26;3.22;;;1.35;;
34767;SDS011;21755;43.608;1.236;2022-09-17T13:22:07;2.92;;;0.90;;
34767;SDS011;21755;43.608;1.236;2022-09-17T13:24:41;7.47;;;1.15;;
34767;SDS011;21755;43.608;1.236;2022-09-17T13:27:24;5.28;;;0.77;;
34767;SDS011;21755;43.608;1.236;2022-09-17T13:37:44;2.83;;;0.90;;
34767;SDS011;21755;43.608;1.236;2022-09-17T13:42:51;0.85;;;0.63;;
34767;SDS011;21755;43.608;1.236;2022-09-17T13:48:23;2.25;;;0.90;;
34767;SDS011;21755;43.608;1.236;2022-09-17T13:50:53;2.65;;;0.65;;
34767;SDS011;21755;43.608;1.236;2022-09-17T13:53:25;2.25;;;0.80;;
34767;SDS011;21755;43.608;1.236;2022-09-17T13:58:23;1.20;;;0.80;;
34767;SDS011;21755;43.608;1.236;2022-09-17T14:13:52;1.95;;;0.73;;
34767;SDS011;21755;43.608;1.236;2022-09-17T14:24:37;0.82;;;0.70;;
34767;SDS011;21755;43.608;1.236;2022-09-17T14:27:16;3.88;;;0.63;;
34767;SDS011;21755;43.608;1.236;2022-09-17T14:32:17;0.80;;;0.55;;
34767;SDS011;21755;43.608;1.236;2022-09-17T14:34:52;2.65;;;0.68;;
34767;SDS011;21755;43.608;1.236;2022-09-17T14:37:18;2.08;;;0.73;;
34767;SDS011;21755;43.608;1.236;2022-09-17T14:39:46;3.03;;;0.68;;
34767;SDS011;21755;43.608;1.236;2022-09-17T14:42:17;2.10;;;0.63;;
34767;SDS011;21755;43.608;1.236;2022-09-17T14:45:06;0.70;;;0.70;;
34767;SDS011;21755;43.608;1.236;2022-09-17T14:47:39;1.45;;;0.75;;
34767;SDS011;21755;43.608;1.236;2022-09-17T14:50:16;2.25;;;0.60;;
34767;SDS011;21755;43.608;1.236;2022-09-17T14:52:48;3.40;;;0.85;;
34767;SDS011;21755;43.608;1.236;2022-09-17T14:57:47;5.80;;;0.85;;
34767;SDS011;21755;43.608;1.236;2022-09-17T15:00:17;2.50;;;0.63;;
34767;SDS011;21755;43.608;1.236;2022-09-17T15:02:48;5.85;;;0.63;;
34767;SDS011;21755;43.608;1.236;2022-09-17T15:08:10;3.60;;;0.65;;
34767;SDS011;21755;43.608;1.236;2022-09-17T15:10:47;3.25;;;0.80;;
34767;SDS011;21755;43.608;1.236;2022-09-17T15:13:17;0.88;;;0.60;;
34767;SDS011;21755;43.608;1.236;2022-09-17T15:15:53;1.50;;;0.60;;
34767;SDS011;21755;43.608;1.236;2022-09-17T15:18:47;1.35;;;0.68;;
34767;SDS011;21755;43.608;1.236;2022-09-17T15:21:28;2.55;;;0.57;;
34767;SDS011;21755;43.608;1.236;2022-09-17T15:24:12;0.93;;;0.52;;
34767;SDS011;21755;43.608;1.236;2022-09-17T15:26:58;1.25;;;0.50;;
34767;SDS011;21755;43.608;1.236;2022-09-17T15:29:35;1.80;;;0.75;;
34767;SDS011;21755;43.608;1.236;2022-09-17T15:32:04;1.05;;;0.70;;
34767;SDS011;21755;43.608;1.236;2022-09-17T15:34:30;2.08;;;0.82;;
34767;SDS011;21755;43.608;1.236;2022-09-17T15:37:15;3.25;;;0.60;;
34767;SDS011;21755;43.608;1.236;2022-09-17T15:39:46;1.13;;;0.60;;
34767;SDS011;21755;43.608;1.236;2022-09-17T15:42:16;0.77;;;0.55;;
34767;SDS011;21755;43.608;1.236;2022-09-17T15:44:48;0.85;;;0.38;;
34767;SDS011;21755;43.608;1.236;2022-09-17T15:47:33;2.15;;;0.50;;
34767;SDS011;21755;43.608;1.236;2022-09-17T15:50:05;4.50;;;0.90;;
34767;SDS011;21755;43.608;1.236;2022-09-17T15:52:49;1.27;;;0.60;;
34767;SDS011;21755;43.608;1.236;2022-09-17T15:55:26;2.63;;;0.52;;
34767;SDS011;21755;43.608;1.236;2022-09-17T15:57:54;1.42;;;0.52;;
34767;SDS011;21755;43.608;1.236;2022-09-17T16:00:21;2.40;;;0.55;;
34767;SDS011;21755;43.608;1.236;2022-09-17T16:02:48;1.25;;;0.60;;
34767;SDS011;21755;43.608;1.236;2022-09-17T16:07:43;0.85;;;0.70;;
34767;SDS011;21755;43.608;1.236;2022-09-17T16:10:10;0.60;;;0.60;;
34767;SDS011;21755;43.608;1.236;2022-09-17T16:12:37;0.75;;;0.50;;
34767;SDS011;21755;43.608;1.236;2022-09-17T16:15:04;2.65;;;0.70;;
34767;SDS011;21755;43.608;1.236;2022-09-17T16:17:46;1.70;;;0.65;;
34767;SDS011;21755;43.608;1.236;2022-09-17T16:20:14;2.83;;;0.80;;
34767;SDS011;21755;43.608;1.236;2022-09-17T16:22:48;0.88;;;0.50;;
34767;SDS011;21755;43.608;1.236;2022-09-17T16:25:15;0.80;;;0.70;;
34767;SDS011;21755;43.608;1.236;2022-09-17T16:30:17;1.60;;;0.70;;
34767;SDS011;21755;43.608;1.236;2022-09-17T16:32:45;6.78;;;0.60;;
34767;SDS011;21755;43.608;1.236;2022-09-17T16:35:15;0.63;;;0.43;;
34767;SDS011;21755;43.608;1.236;2022-09-17T16:37:49;1.67;;;0.60;;
34767;SDS011;21755;43.608;1.236;2022-09-17T16:40:17;0.60;;;0.50;;
34767;SDS011;21755;43.608;1.236;2022-09-17T16:42:43;0.60;;;0.60;;
34767;SDS011;21755;43.608;1.236;2022-09-17T16:45:09;2.42;;;0.60;;
34767;SDS011;21755;43.608;1.236;2022-09-17T16:47:36;0.35;;;0.35;;
34767;SDS011;21755;43.608;1.236;2022-09-17T16:50:06;5.78;;;0.65;;
34767;SDS011;21755;43.608;1.236;2022-09-17T16:52:37;1.02;;;0.40;;
34767;SDS011;21755;43.608;1.236;2022-09-17T16:55:03;1.17;;;0.60;;
34767;SDS011;21755;43.608;1.236;2022-09-17T16:57:30;1.95;;;0.80;;
34767;SDS011;21755;43.608;1.236;2022-09-17T16:59:57;2.00;;;0.50;;
34767;SDS011;21755;43.608;1.236;2022-09-17T17:02:23;3.63;;;0.50;;
34767;SDS011;21755;43.608;1.236;2022-09-17T17:04:49;1.35;;;0.55;;
34767;SDS011;21755;43.608;1.236;2022-09-17T17:07:15;1.50;;;1.00;;
34767;SDS011;21755;43.608;1.236;2022-09-17T17:09:41;2.78;;;0.80;;
34767;SDS011;21755;43.608;1.236;2022-09-17T17:12:07;5.45;;;0.73;;
34767;SDS011;21755;43.608;1.236;2022-09-17T17:14:33;1.58;;;0.60;;
34767;SDS011;21755;43.608;1.236;2022-09-17T17:16:59;2.15;;;0.55;;
34767;SDS011;21755;43.608;1.236;2022-09-17T17:19:24;1.08;;;0.47;;
34767;SDS011;21755;43.608;1.236;2022-09-17T17:21:51;1.00;;;0.65;;
34767;SDS011;21755;43.608;1.236;2022-09-17T17:24:17;1.05;;;0.50;;
34767;SDS011;21755;43.608;1.236;2022-09-17T17:26:45;1.00;;;0.47;;
34767;SDS011;21755;43.608;1.236;2022-09-17T17:29:13;2.65;;;0.60;;
34767;SDS011;21755;43.608;1.236;2022-09-17T17:31:39;2.40;;;0.60;;
34767;SDS011;21755;43.608;1.236;2022-09-17T17:34:05;2.17;;;0.63;;
34767;SDS011;21755;43.608;1.236;2022-09-17T17:36:31;1.05;;;0.50;;
34767;SDS011;21755;43.608;1.236;2022-09-17T17:38:57;0.95;;;0.50;;
34767;SDS011;21755;43.608;1.236;2022-09-17T17:41:24;4.07;;;0.63;;
34767;SDS011;21755;43.608;1.236;2022-09-17T17:43:54;4.47;;;0.80;;
34767;SDS011;21755;43.608;1.236;2022-09-17T17:46:21;1.80;;;0.55;;
34767;SDS011;21755;43.608;1.236;2022-09-17T17:48:48;2.25;;;0.77;;
34767;SDS011;21755;43.608;1.236;2022-09-17T17:51:14;1.08;;;0.60;;
34767;SDS011;21755;43.608;1.236;2022-09-17T17:53:42;1.02;;;0.60;;
34767;SDS011;21755;43.608;1.236;2022-09-17T17:56:10;4.18;;;0.68;;
34767;SDS011;21755;43.608;1.236;2022-09-17T17:58:37;5.93;;;1.52;;
34767;SDS011;21755;43.608;1.236;2022-09-17T18:03:40;10.65;;;0.82;;
34767;SDS011;21755;43.608;1.236;2022-09-17T18:06:06;4.50;;;0.77;;
34767;SDS011;21755;43.608;1.236;2022-09-17T18:08:36;7.13;;;0.70;;
34767;SDS011;21755;43.608;1.236;2022-09-17T18:11:03;3.75;;;0.75;;
34767;SDS011;21755;43.608;1.236;2022-09-17T18:13:32;1.77;;;0.55;;
34767;SDS011;21755;43.608;1.236;2022-09-17T18:15:59;3.20;;;0.88;;
34767;SDS011;21755;43.608;1.236;2022-09-17T18:18:33;1.70;;;0.60;;
34767;SDS011;21755;43.608;1.236;2022-09-17T18:21:04;1.50;;;0.60;;
34767;SDS011;21755;43.608;1.236;2022-09-17T18:23:35;4.72;;;0.50;;
34767;SDS011;21755;43.608;1.236;2022-09-17T18:26:03;1.85;;;0.70;;
34767;SDS011;21755;43.608;1.236;2022-09-17T18:28:31;4.03;;;0.50;;
34767;SDS011;21755;43.608;1.236;2022-09-17T18:33:54;1.55;;;0.60;;
34767;SDS011;21755;43.608;1.236;2022-09-17T18:36:26;2.05;;;0.55;;
34767;SDS011;21755;43.608;1.236;2022-09-17T18:38:54;1.20;;;0.77;;
34767;SDS011;21755;43.608;1.236;2022-09-17T18:41:25;4.35;;;0.73;;
34767;SDS011;21755;43.608;1.236;2022-09-17T18:43:55;2.78;;;0.60;;
34767;SDS011;21755;43.608;1.236;2022-09-17T18:46:22;15.15;;;0.85;;
34767;SDS011;21755;43.608;1.236;2022-09-17T18:48:51;3.28;;;0.90;;
34767;SDS011;21755;43.608;1.236;2022-09-17T18:51:17;1.70;;;0.60;;